createdAt,value
2022-11-15T00:02:08.674Z,97891.53
2022-11-15T00:04:38.781Z,97889.09
2022-11-15T00:07:06.778Z,97881.69
2022-11-15T00:09:34.171Z,97877.03
2022-11-15T00:12:06.747Z,97887.72
2022-11-15T00:14:37.626Z,97874.88
2022-11-15T00:17:04.689Z,97867.06
2022-11-15T00:19:31.768Z,97871.22
2022-11-15T00:22:01.459Z,97869.72
2022-11-15T00:24:32.109Z,97878.06
2022-11-15T00:26:59.202Z,97876.38
2022-11-15T00:29:28.582Z,97870.47
2022-11-15T00:31:58.962Z,97875.72
2022-11-15T00:34:29.007Z,97869.84
2022-11-15T00:37:04.293Z,97866.22
2022-11-15T00:39:31.516Z,97870.19
2022-11-15T00:42:01.291Z,97868.72
2022-11-15T00:44:31.560Z,97866.44
2022-11-15T00:47:04.902Z,97868.53
2022-11-15T00:49:32.245Z,97861.59
2022-11-15T00:51:59.321Z,97856.44
2022-11-15T00:54:27.603Z,97857.03
2022-11-15T00:56:58.698Z,97849.94
2022-11-15T00:59:28.724Z,97854.00
2022-11-15T01:01:55.873Z,97855.03
2022-11-15T01:04:25.497Z,97864.75
2022-11-15T01:06:56.271Z,97858.44
2022-11-15T01:09:28.827Z,97856.00
2022-11-15T01:11:59.535Z,97853.84
2022-11-15T01:14:26.818Z,97860.72
2022-11-15T01:16:56.999Z,97852.97
2022-11-15T01:19:24.260Z,97849.03
2022-11-15T01:21:52.440Z,97851.75
2022-11-15T01:24:20.004Z,97850.28
2022-11-15T01:26:58.097Z,97850.91
2022-11-15T01:29:27.893Z,97846.66
2022-11-15T01:31:56.263Z,97852.78
2022-11-15T01:34:27.780Z,97842.50
2022-11-15T01:36:54.902Z,97842.19
2022-11-15T01:39:23.160Z,97849.03
2022-11-15T01:41:53.178Z,97840.34
2022-11-15T01:45:10.046Z,97839.91
2022-11-15T01:47:49.400Z,97833.13
2022-11-15T01:50:35.526Z,97832.28
2022-11-15T01:53:08.922Z,97823.78
2022-11-15T01:55:37.629Z,97816.47
2022-11-15T01:58:07.814Z,97821.09
2022-11-15T02:00:36.114Z,97810.88
2022-11-15T02:03:17.502Z,97809.34
2022-11-15T02:05:45.622Z,97811.97
2022-11-15T02:08:21.012Z,97812.38
2022-11-15T02:10:51.526Z,97812.72
2022-11-15T02:13:20.071Z,97836.78
2022-11-15T02:16:33.426Z,97831.22
2022-11-15T02:19:31.904Z,97819.13
2022-11-15T02:22:57.342Z,97809.13
2022-11-15T02:26:06.581Z,97810.41
2022-11-15T02:28:46.812Z,97810.09
2022-11-15T02:31:59.467Z,97805.84
2022-11-15T02:34:44.007Z,97806.75
2022-11-15T02:37:30.310Z,97818.16
2022-11-15T02:40:28.191Z,97807.91
2022-11-15T02:43:25.414Z,97810.09
2022-11-15T02:46:19.760Z,97797.13
2022-11-15T02:48:56.286Z,97796.19
2022-11-15T02:51:30.643Z,97791.56
2022-11-15T02:53:58.274Z,97787.84
2022-11-15T02:56:26.230Z,97795.28
2022-11-15T02:59:32.055Z,97789.50
2022-11-15T03:02:40.437Z,97786.19
2022-11-15T03:05:39.284Z,97798.81
2022-11-15T03:08:44.907Z,97787.69
2022-11-15T03:11:29.294Z,97787.50
2022-11-15T03:14:41.677Z,97780.16
2022-11-15T03:17:16.622Z,97782.53
2022-11-15T03:19:58.500Z,97783.47
2022-11-15T03:22:40.088Z,97793.38
2022-11-15T03:25:12.952Z,97789.94
2022-11-15T03:27:48.906Z,97779.47
2022-11-15T03:30:19.928Z,97778.91
2022-11-15T03:33:03.372Z,97780.00
2022-11-15T03:35:40.789Z,97787.22
2022-11-15T03:38:34.201Z,97788.03
2022-11-15T03:44:05.671Z,97788.94
2022-11-15T03:46:57.393Z,97784.59
2022-11-15T03:49:42.297Z,97781.88
2022-11-15T03:52:14.942Z,97783.31
2022-11-15T03:54:58.857Z,97784.81
2022-11-15T03:57:26.983Z,97781.75
2022-11-15T03:59:57.515Z,97785.44
2022-11-15T04:02:24.653Z,97787.53
2022-11-15T04:04:53.273Z,97778.13
2022-11-15T04:07:24.882Z,97784.31
2022-11-15T04:10:06.417Z,97788.06
2022-11-15T04:12:45.721Z,97791.03
2022-11-15T04:15:20.491Z,97783.94
2022-11-15T04:18:07.999Z,97776.78
2022-11-15T04:20:54.449Z,97774.94
2022-11-15T04:23:44.110Z,97767.34
2022-11-15T04:26:19.272Z,97759.66
2022-11-15T04:29:05.176Z,97759.31
2022-11-15T04:31:38.418Z,97761.47
2022-11-15T04:34:09.282Z,97767.84
2022-11-15T04:36:55.244Z,97759.38
2022-11-15T04:39:22.786Z,97755.59
2022-11-15T04:41:50.844Z,97751.91
2022-11-15T04:44:17.980Z,97741.91
2022-11-15T04:46:45.079Z,97730.56
2022-11-15T04:49:16.359Z,97729.88
2022-11-15T04:51:51.076Z,97733.41
2022-11-15T04:54:18.655Z,97729.44
2022-11-15T04:56:56.989Z,97733.53
2022-11-15T04:59:27.086Z,97738.13
2022-11-15T05:01:54.319Z,97739.41
2022-11-15T05:04:24.107Z,97756.06
2022-11-15T05:06:52.816Z,97750.44
2022-11-15T05:09:23.002Z,97734.19
2022-11-15T05:11:54.559Z,97732.34
2022-11-15T05:14:25.687Z,97749.63
2022-11-15T05:16:59.579Z,97748.06
2022-11-15T05:19:30.239Z,97745.28
2022-11-15T05:22:05.370Z,97747.75
2022-11-15T05:24:35.819Z,97757.53
2022-11-15T05:27:06.584Z,97766.91
2022-11-15T05:29:34.759Z,97770.13
2022-11-15T05:32:05.789Z,97763.06
2022-11-15T05:34:34.301Z,97759.59
2022-11-15T05:37:09.839Z,97753.53
2022-11-15T05:39:37.159Z,97766.81
2022-11-15T05:42:14.391Z,97756.28
2022-11-15T05:44:48.716Z,97754.19
2022-11-15T05:47:24.907Z,97751.66
2022-11-15T05:49:55.990Z,97746.09
2022-11-15T05:52:38.116Z,97754.00
2022-11-15T05:55:15.140Z,97755.31
2022-11-15T05:57:42.787Z,97752.31
2022-11-15T06:00:14.742Z,97777.25
2022-11-15T06:02:42.989Z,97769.91
2022-11-15T06:05:10.841Z,97771.59
2022-11-15T06:07:45.311Z,97778.13
2022-11-15T06:10:13.945Z,97769.81
2022-11-15T06:12:43.552Z,97776.91
2022-11-15T06:15:11.007Z,97772.28
2022-11-15T06:17:38.643Z,97773.38
2022-11-15T06:20:07.569Z,97768.78
2022-11-15T06:22:42.337Z,97772.06
2022-11-15T06:25:09.535Z,97777.53
2022-11-15T06:27:36.781Z,97770.91
2022-11-15T06:30:11.439Z,97773.47
2022-11-15T06:32:39.865Z,97774.22
2022-11-15T06:35:14.015Z,97776.78
2022-11-15T06:37:45.154Z,97770.75
2022-11-15T06:40:15.068Z,97778.72
2022-11-15T06:42:43.874Z,97772.31
2022-11-15T06:45:20.762Z,97764.94
2022-11-15T06:47:50.597Z,97763.59
2022-11-15T06:50:20.424Z,97760.81
2022-11-15T06:52:50.824Z,97777.84
2022-11-15T06:55:19.908Z,97783.09
2022-11-15T06:57:53.995Z,97776.22
2022-11-15T07:00:25.336Z,97765.03
2022-11-15T07:02:55.479Z,97764.84
2022-11-15T07:05:23.750Z,97752.81
2022-11-15T07:07:59.812Z,97749.84
2022-11-15T07:10:28.381Z,97745.78
2022-11-15T07:12:57.519Z,97754.41
2022-11-15T07:15:27.704Z,97753.56
2022-11-15T07:17:55.195Z,97767.63
2022-11-15T07:20:22.230Z,97770.09
2022-11-15T07:22:50.218Z,97764.38
2022-11-15T07:25:28.747Z,97765.84
2022-11-15T07:28:01.466Z,97762.31
2022-11-15T07:30:45.400Z,97772.19
2022-11-15T07:33:25.338Z,97766.28
2022-11-15T07:35:52.550Z,97766.75
2022-11-15T07:38:22.565Z,97760.88
2022-11-15T07:41:03.056Z,97759.53
2022-11-15T07:43:37.434Z,97757.66
2022-11-15T07:46:17.690Z,97757.25
2022-11-15T07:48:45.494Z,97750.16
2022-11-15T07:51:18.112Z,97749.69
2022-11-15T07:53:46.450Z,97744.28
2022-11-15T07:56:15.695Z,97743.34
2022-11-15T07:58:43.053Z,97745.31
2022-11-15T08:01:13.824Z,97747.13
2022-11-15T08:03:42.213Z,97754.03
2022-11-15T08:06:09.838Z,97754.31
2022-11-15T08:08:40.398Z,97750.47
2022-11-15T08:11:13.847Z,97746.44
2022-11-15T08:13:44.453Z,97744.16
2022-11-15T08:16:18.057Z,97745.25
2022-11-15T08:18:48.807Z,97739.31
2022-11-15T08:21:27.905Z,97737.75
2022-11-15T08:24:01.807Z,97747.16
2022-11-15T08:26:31.097Z,97747.31
2022-11-15T08:28:59.510Z,97755.09
2022-11-15T08:31:27.863Z,97757.66
2022-11-15T08:33:55.190Z,97764.88
2022-11-15T08:36:39.467Z,97759.47
2022-11-15T08:39:18.070Z,97746.06
2022-11-15T08:41:48.203Z,97768.50
2022-11-15T08:44:21.181Z,97763.13
2022-11-15T08:46:50.898Z,97745.31
2022-11-15T08:49:18.241Z,97740.13
2022-11-15T08:51:46.914Z,97741.25
2022-11-15T08:54:14.010Z,97715.63
2022-11-15T08:56:45.923Z,97724.53
2022-11-15T08:59:14.739Z,97732.44
2022-11-15T09:01:43.032Z,97721.75
2022-11-15T09:04:15.173Z,97722.34
2022-11-15T09:09:24.670Z,97717.97
2022-11-15T09:11:51.912Z,97722.81
2022-11-15T09:14:25.375Z,97733.72
2022-11-15T09:16:52.729Z,97727.97
2022-11-15T09:19:20.477Z,97718.25
2022-11-15T09:21:48.657Z,97731.44
2022-11-15T09:24:20.111Z,97728.78
2022-11-15T09:26:54.088Z,97733.16
2022-11-15T09:29:23.954Z,97730.16
2022-11-15T09:31:56.356Z,97721.41
2022-11-15T09:34:24.877Z,97720.44
2022-11-15T09:36:53.522Z,97715.00
2022-11-15T09:39:25.199Z,97720.59
2022-11-15T09:42:49.962Z,97721.75
2022-11-15T09:46:00.516Z,97719.84
2022-11-15T09:48:58.076Z,97711.34
2022-11-15T09:51:39.115Z,97715.50
2022-11-15T09:54:52.237Z,97700.34
2022-11-15T09:57:30.062Z,97699.06
2022-11-15T10:00:48.348Z,97689.03
2022-11-15T10:03:38.284Z,97695.75
2022-11-15T10:06:25.888Z,97692.63
2022-11-15T10:09:20.008Z,97683.69
2022-11-15T10:11:53.072Z,97676.88
2022-11-15T10:14:28.923Z,97675.03
2022-11-15T10:17:43.393Z,97670.00
2022-11-15T10:20:37.886Z,97669.72
2022-11-15T10:23:17.622Z,97658.09
2022-11-15T10:25:47.453Z,97653.47
2022-11-15T10:28:36.207Z,97643.88
2022-11-15T10:31:05.763Z,97636.03
2022-11-15T10:33:39.319Z,97629.53
2022-11-15T10:36:26.456Z,97628.06
2022-11-15T10:39:06.368Z,97624.38
2022-11-15T10:44:47.877Z,97609.84
2022-11-15T10:47:39.462Z,97603.53
2022-11-15T10:50:32.960Z,97600.13
2022-11-15T10:53:03.983Z,97612.59
2022-11-15T10:55:34.908Z,97611.00
2022-11-15T10:58:44.710Z,97599.19
2022-11-15T11:01:30.019Z,97592.94
2022-11-15T11:04:07.610Z,97585.72
2022-11-15T11:07:00.903Z,97587.50
2022-11-15T11:09:43.341Z,97583.25
2022-11-15T11:12:16.804Z,97581.59
2022-11-15T11:14:51.406Z,97573.75
2022-11-15T11:17:36.352Z,97565.22
2022-11-15T11:20:35.989Z,97569.16
2022-11-15T11:23:39.210Z,97558.34
2022-11-15T11:26:34.764Z,97554.22
2022-11-15T11:29:58.348Z,97545.22
2022-11-15T11:33:05.267Z,97543.06
2022-11-15T11:36:02.316Z,97541.94
2022-11-15T11:38:44.124Z,97539.97
2022-11-15T11:42:12.903Z,97544.41
2022-11-15T11:45:15.504Z,97536.69
2022-11-15T11:47:56.256Z,97527.63
2022-11-15T11:50:29.709Z,97532.84
2022-11-15T11:53:42.833Z,97529.75
2022-11-15T11:56:40.375Z,97536.91
2022-11-15T11:59:17.612Z,97536.94
2022-11-15T12:01:53.272Z,97531.44
2022-11-15T12:04:44.040Z,97516.22
2022-11-15T12:07:39.496Z,97518.72
2022-11-15T12:10:27.266Z,97513.03
2022-11-15T12:13:23.310Z,97515.78
2022-11-15T12:16:04.967Z,97500.16
2022-11-15T12:18:36.713Z,97492.69
2022-11-15T12:21:46.971Z,97500.13
2022-11-15T12:24:41.910Z,97494.31
2022-11-15T12:27:55.591Z,97497.94
2022-11-15T12:30:26.429Z,97496.50
2022-11-15T12:33:03.170Z,97501.56
2022-11-15T12:35:47.437Z,97502.56
2022-11-15T12:39:11.006Z,97493.03
2022-11-15T12:41:45.050Z,97491.59
2022-11-15T12:44:32.156Z,97495.13
2022-11-15T12:47:27.161Z,97490.34
2022-11-15T12:50:03.523Z,97486.25
2022-11-15T12:52:33.467Z,97484.88
2022-11-15T12:55:09.593Z,97477.56
2022-11-15T12:57:44.253Z,97472.16
2022-11-15T13:00:32.353Z,97460.66
2022-11-15T13:03:27.223Z,97453.69
2022-11-15T13:06:00.360Z,97443.84
2022-11-15T13:08:49.693Z,97448.28
2022-11-15T13:11:51.235Z,97441.16
2022-11-15T13:15:00.483Z,97454.75
2022-11-15T13:17:42.908Z,97444.66
2022-11-15T13:20:23.516Z,97438.25
2022-11-15T13:23:06.975Z,97436.16
2022-11-15T13:25:36.907Z,97441.22
2022-11-15T13:28:53.853Z,97440.84
2022-11-15T13:31:44.634Z,97434.38
2022-11-15T13:34:53.405Z,97430.03
2022-11-15T13:37:23.705Z,97424.09
2022-11-15T13:39:56.382Z,97421.91
2022-11-15T13:42:26.147Z,97428.25
2022-11-15T13:45:07.537Z,97429.78
2022-11-15T13:47:40.091Z,97408.16
2022-11-15T13:50:23.732Z,97404.19
2022-11-15T13:52:53.769Z,97398.31
2022-11-15T13:55:26.709Z,97402.22
2022-11-15T13:58:14.317Z,97397.91
2022-11-15T14:00:53.383Z,97398.25
2022-11-15T14:03:49.369Z,97392.66
2022-11-15T14:06:21.278Z,97399.31
2022-11-15T14:09:21.558Z,97397.72
2022-11-15T14:11:57.389Z,97391.91
2022-11-15T14:14:30.312Z,97393.19
2022-11-15T14:17:02.710Z,97389.03
2022-11-15T14:19:33.153Z,97388.56
2022-11-15T14:22:38.112Z,97390.69
2022-11-15T14:25:34.882Z,97380.75
2022-11-15T14:28:33.369Z,97374.72
2022-11-15T14:31:14.220Z,97380.34
2022-11-15T14:33:43.068Z,97378.34
2022-11-15T14:36:24.608Z,97376.28
2022-11-15T14:38:51.860Z,97373.00
2022-11-15T14:41:25.353Z,97369.78
2022-11-15T14:43:54.257Z,97367.28
2022-11-15T14:46:21.360Z,97359.06
2022-11-15T14:48:49.006Z,97356.69
2022-11-15T14:51:21.467Z,97355.69
2022-11-15T14:53:51.468Z,97339.69
2022-11-15T14:56:28.931Z,97346.19
2022-11-15T14:59:01.161Z,97340.44
2022-11-15T15:01:36.657Z,97337.75
2022-11-15T15:04:09.988Z,97329.06
2022-11-15T15:06:39.441Z,97320.66
2022-11-15T15:09:07.133Z,97326.25
2022-11-15T15:11:34.343Z,97320.34
2022-11-15T15:14:09.094Z,97324.53
2022-11-15T15:16:38.619Z,97325.13
2022-11-15T15:19:08.955Z,97317.00
2022-11-15T15:21:40.051Z,97332.19
2022-11-15T15:24:09.029Z,97317.78
2022-11-15T15:26:39.175Z,97321.22
2022-11-15T15:29:14.817Z,97323.75
2022-11-15T15:31:42.149Z,97310.19
2022-11-15T15:34:15.369Z,97310.59
2022-11-15T15:36:44.001Z,97330.09
2022-11-15T15:39:20.109Z,97318.59
2022-11-15T15:41:54.790Z,97310.84
2022-11-15T15:44:25.653Z,97316.88
2022-11-15T15:46:54.110Z,97301.53
2022-11-15T15:49:24.158Z,97306.50
2022-11-15T15:51:52.449Z,97313.56
2022-11-15T15:54:24.477Z,97305.44
2022-11-15T15:56:58.581Z,97309.94
2022-11-15T15:59:25.928Z,97310.59
2022-11-15T16:01:52.865Z,97310.41
2022-11-15T16:04:23.135Z,97301.31
2022-11-15T16:06:53.863Z,97301.06
2022-11-15T16:09:57.532Z,97296.81
2022-11-15T16:12:31.861Z,97293.38
2022-11-15T16:15:01.341Z,97291.63
2022-11-15T16:17:38.601Z,97293.72
2022-11-15T16:20:37.021Z,97285.31
2022-11-15T16:23:11.234Z,97295.78
2022-11-15T16:25:59.034Z,97294.19
2022-11-15T16:28:39.030Z,97290.00
2022-11-15T16:31:14.192Z,97296.84
2022-11-15T16:33:49.088Z,97294.25
2022-11-15T16:36:30.482Z,97307.41
2022-11-15T16:39:00.761Z,97306.03
2022-11-15T16:41:28.144Z,97293.25
2022-11-15T16:44:03.900Z,97294.13
2022-11-15T16:46:31.499Z,97284.41
2022-11-15T16:48:58.730Z,97299.16
2022-11-15T16:51:32.641Z,97302.19
2022-11-15T16:54:03.426Z,97289.22
2022-11-15T16:56:36.517Z,97296.50
2022-11-15T16:59:06.607Z,97294.91
2022-11-15T17:01:49.270Z,97286.06
2022-11-15T17:04:34.835Z,97285.53
2022-11-15T17:07:11.709Z,97280.38
2022-11-15T17:09:39.190Z,97282.31
2022-11-15T17:12:07.617Z,97280.78
2022-11-15T17:14:37.048Z,97273.28
2022-11-15T17:17:10.197Z,97289.72
2022-11-15T17:19:43.472Z,97283.56
2022-11-15T17:22:11.527Z,97275.22
2022-11-15T17:24:45.262Z,97270.44
2022-11-15T17:27:12.462Z,97267.69
2022-11-15T17:29:45.211Z,97276.53
2022-11-15T17:32:16.218Z,97272.88
2022-11-15T17:34:43.935Z,97276.88
2022-11-15T17:37:12.130Z,97264.38
2022-11-15T17:39:48.602Z,97263.63
2022-11-15T17:42:16.647Z,97271.53
2022-11-15T17:44:43.845Z,97257.94
2022-11-15T17:47:12.241Z,97255.59
2022-11-15T17:49:42.188Z,97254.00
2022-11-15T17:52:12.606Z,97256.94
2022-11-15T17:54:46.811Z,97251.09
2022-11-15T17:57:18.957Z,97246.59
2022-11-15T17:59:46.092Z,97250.81
2022-11-15T18:02:13.260Z,97255.50
2022-11-15T18:04:45.202Z,97257.72
2022-11-15T18:07:14.383Z,97253.34
2022-11-15T18:09:47.654Z,97243.38
2022-11-15T18:12:18.136Z,97248.50
2022-11-15T18:15:05.425Z,97249.50
2022-11-15T18:17:39.988Z,97248.06
2022-11-15T18:20:08.611Z,97241.06
2022-11-15T18:22:41.571Z,97238.53
2022-11-15T18:25:10.411Z,97245.06
2022-11-15T18:27:45.485Z,97237.78
2022-11-15T18:30:14.233Z,97236.88
2022-11-15T18:32:52.275Z,97229.06
2022-11-15T18:35:25.116Z,97214.06
2022-11-15T18:37:58.190Z,97207.72
2022-11-15T18:40:34.377Z,97202.09
2022-11-15T18:43:02.065Z,97206.88
2022-11-15T18:45:29.298Z,97218.44
2022-11-15T18:48:01.415Z,97218.13
2022-11-15T18:50:32.406Z,97201.56
2022-11-15T18:53:06.793Z,97202.38
2022-11-15T18:55:36.541Z,97194.53
2022-11-15T18:58:06.798Z,97190.16
2022-11-15T19:00:38.155Z,97191.00
2022-11-15T19:03:10.110Z,97194.91
2022-11-15T19:05:44.534Z,97178.53
2022-11-15T19:08:15.106Z,97182.94
2022-11-15T19:10:45.210Z,97177.75
2022-11-15T19:13:14.854Z,97175.31
2022-11-15T19:15:47.257Z,97177.97
2022-11-15T19:18:35.271Z,97184.16
2022-11-15T19:21:25.975Z,97189.91
2022-11-15T19:23:56.760Z,97195.13
2022-11-15T19:26:25.427Z,97187.22
2022-11-15T19:28:59.146Z,97188.28
2022-11-15T19:31:32.780Z,97189.22
2022-11-15T19:34:08.228Z,97186.31
2022-11-15T19:36:44.926Z,97190.47
2022-11-15T19:39:22.111Z,97183.88
2022-11-15T19:41:56.731Z,97176.66
2022-11-15T19:44:27.325Z,97175.66
2022-11-15T19:46:54.548Z,97167.97
2022-11-15T19:49:25.223Z,97168.47
2022-11-15T19:51:56.097Z,97172.81
2022-11-15T19:54:27.647Z,97175.56
2022-11-15T19:56:55.017Z,97183.22
2022-11-15T19:59:23.553Z,97167.16
2022-11-15T20:02:04.744Z,97174.31
2022-11-15T20:04:36.781Z,97165.00
2022-11-15T20:07:09.619Z,97148.38
2022-11-15T20:09:47.351Z,97149.97
2022-11-15T20:12:22.114Z,97154.59
2022-11-15T20:14:52.997Z,97156.56
2022-11-15T20:17:26.656Z,97158.31
2022-11-15T20:19:56.842Z,97155.97
2022-11-15T20:22:27.051Z,97159.84
2022-11-15T20:24:57.777Z,97165.13
2022-11-15T20:27:26.842Z,97155.72
2022-11-15T20:29:59.075Z,97152.88
2022-11-15T20:38:12.805Z,97169.81
2022-11-15T20:53:21.460Z,97126.47
2022-11-15T20:56:07.921Z,97129.75
2022-11-15T20:58:37.696Z,97129.22
2022-11-15T21:01:20.343Z,97117.97
2022-11-15T21:04:04.185Z,97101.88
2022-11-15T21:06:36.036Z,97103.94
2022-11-15T21:09:29.201Z,97111.00
2022-11-15T21:12:08.160Z,97103.75
2022-11-15T21:14:49.821Z,97084.00
2022-11-15T21:17:21.147Z,97095.31
2022-11-15T21:19:50.336Z,97106.22
2022-11-15T21:22:22.127Z,97091.53
2022-11-15T21:24:53.815Z,97083.78
2022-11-15T21:27:30.227Z,97091.75
2022-11-15T21:29:57.765Z,97080.25
2022-11-15T21:35:16.045Z,97071.22
2022-11-15T21:37:43.757Z,97060.59
2022-11-15T21:40:15.026Z,97065.03
2022-11-15T21:42:48.071Z,97061.25
2022-11-15T21:45:16.936Z,97057.25
2022-11-15T21:47:46.924Z,97061.66
2022-11-15T21:50:21.801Z,97056.84
2022-11-15T21:52:55.306Z,97048.13
2022-11-15T21:55:25.009Z,97033.59
2022-11-15T21:57:57.904Z,97040.00
2022-11-15T22:00:32.761Z,97056.59
2022-11-15T22:03:12.200Z,97057.16
2022-11-15T22:05:44.748Z,97051.38
2022-11-15T22:08:15.713Z,97050.69
2022-11-15T22:10:47.768Z,97041.91
2022-11-15T22:13:15.574Z,97023.97
2022-11-15T22:15:46.462Z,97027.63
2022-11-15T22:18:26.926Z,97026.09
2022-11-15T22:21:03.810Z,97034.75
2022-11-15T22:23:37.748Z,97018.44
2022-11-15T22:26:12.001Z,97009.97
2022-11-15T22:28:43.529Z,97008.31
2022-11-15T22:31:12.042Z,97004.63
2022-11-15T22:33:41.277Z,97007.34
2022-11-15T22:36:16.183Z,97009.16
2022-11-15T22:38:45.179Z,97010.88
2022-11-15T22:41:19.001Z,97013.84
2022-11-15T22:43:52.363Z,96994.59
2022-11-15T22:46:22.504Z,96982.44
2022-11-15T22:48:52.723Z,96986.19
2022-11-15T22:51:20.452Z,96974.94
2022-11-15T22:53:52.900Z,96967.94
2022-11-15T22:56:23.573Z,96967.06
2022-11-15T22:58:50.858Z,96959.00
2022-11-15T23:01:25.606Z,96961.84
2022-11-15T23:03:53.547Z,96967.13
2022-11-15T23:06:26.765Z,96968.53
2022-11-15T23:08:57.550Z,96958.13
2022-11-15T23:11:28.814Z,96978.41
2022-11-15T23:13:57.297Z,96949.13
2022-11-15T23:16:35.339Z,96934.13
2022-11-15T23:19:12.894Z,96926.88
2022-11-15T23:21:48.330Z,96929.91
2022-11-15T23:24:24.436Z,96917.16
2022-11-15T23:27:01.052Z,96910.00
2022-11-15T23:29:34.215Z,96906.53
2022-11-15T23:32:08.017Z,96914.50
2022-11-15T23:34:43.975Z,96895.59
2022-11-15T23:37:20.730Z,96897.59
2022-11-15T23:39:53.684Z,96885.16
2022-11-15T23:42:26.361Z,96887.22
2022-11-15T23:44:54.582Z,96881.78
2022-11-15T23:47:28.936Z,96875.47
2022-11-15T23:49:57.236Z,96879.88
2022-11-15T23:52:40.463Z,96877.28
2022-11-15T23:55:16.121Z,96881.66
2022-11-15T23:57:52.209Z,96890.38
